Time;durP1;ratioP1;P1;durP2;ratioP2;P2;SDS_P1;SDS_P2;PMS_P1;PMS_P2;Temp;Humidity;BMP_temperature;BMP_pressure;BME280_temperature;BME280_humidity;BME280_pressure;Samples;Min_cycle;Max_cycle;Signal;HPM_P1;HPM_P2
2021/08/16 00:01:12;;;;;;;13.25;7.22;;;21.40;80.40;;;20.49;80.01;95671.75;4933254;29;20581;-69
2021/08/16 00:03:38;;;;;;;10.63;6.97;;;21.30;81.10;;;20.44;79.58;95653.06;4919883;29;20039;-69
2021/08/16 00:06:04;;;;;;;12.82;6.60;;;21.20;81.30;;;20.39;80.58;95655.69;4932816;28;20054;-69
2021/08/16 00:08:30;;;;;;;12.10;6.72;;;21.10;81.70;;;20.33;80.70;95641.47;4925137;29;21699;-69
2021/08/16 00:10:55;;;;;;;11.05;7.00;;;21.10;81.80;;;20.29;80.87;95623.56;4931293;28;20067;-68
2021/08/16 00:13:24;;;;;;;12.35;7.25;;;21.10;82.00;;;20.28;80.32;95613.94;4920746;28;20056;-69
2021/08/16 00:15:52;;;;;;;12.93;6.78;;;21.10;82.10;;;20.27;81.31;95609.69;4916681;29;20034;-69
2021/08/16 00:18:18;;;;;;;12.02;6.93;;;21.10;82.00;;;20.27;81.58;95605.13;4950097;28;20511;-69
2021/08/16 00:20:44;;;;;;;9.13;6.75;;;21.10;81.90;;;20.27;80.80;95599.00;4944403;28;20038;-68
2021/08/16 00:23:10;;;;;;;11.98;7.13;;;21.20;81.70;;;20.29;80.86;95607.53;4935569;29;20122;-68
2021/08/16 00:25:35;;;;;;;10.57;6.68;;;21.20;81.60;;;20.29;80.83;95607.53;4950947;28;20039;-69
2021/08/16 00:28:01;;;;;;;9.48;7.07;;;21.20;81.50;;;20.30;81.36;95603.81;4939967;28;20050;-68
2021/08/16 00:30:27;;;;;;;13.45;6.70;;;21.20;81.40;;;20.30;81.42;95598.47;4929525;28;20543;-69
2021/08/16 00:32:52;;;;;;;11.25;6.70;;;21.30;81.20;;;20.30;81.04;95598.47;4925831;28;20849;-69
2021/08/16 00:35:18;;;;;;;13.27;7.40;;;21.20;81.00;;;20.22;80.80;95596.31;4940097;28;20043;-69
2021/08/16 00:37:45;;;;;;;10.25;7.18;;;21.10;81.70;;;20.16;81.33;95596.31;4901712;29;20047;-68
2021/08/16 00:40:13;;;;;;;12.93;6.40;;;21.00;82.00;;;20.15;81.90;95597.38;4912681;29;20036;-69
2021/08/16 00:42:39;;;;;;;13.05;6.97;;;21.10;82.00;;;20.16;82.10;95608.84;4938991;28;20039;-69
2021/08/16 00:45:07;;;;;;;13.50;7.20;;;21.10;81.70;;;20.17;81.33;95610.47;4912896;29;20088;-68
2021/08/16 00:47:33;;;;;;;16.60;10.20;;;21.20;81.50;;;20.19;82.09;95609.13;4937590;28;20175;-68
2021/08/16 00:49:59;;;;;;;18.00;10.18;;;21.20;81.50;;;20.20;81.22;95609.94;4926198;29;20071;-69
2021/08/16 00:52:26;;;;;;;12.35;9.02;;;21.20;81.30;;;20.21;81.67;95613.41;4922800;29;20130;-68
2021/08/16 00:54:53;;;;;;;11.07;7.75;;;21.30;81.10;;;20.22;82.05;95609.66;4919566;28;20471;-68
2021/08/16 00:57:19;;;;;;;10.73;7.57;;;21.20;81.00;;;20.23;81.53;95606.72;4926158;28;20123;-68
2021/08/16 00:59:45;;;;;;;10.85;6.95;;;21.20;80.90;;;20.24;80.72;95610.22;4920709;29;20040;-68
2021/08/16 01:02:11;;;;;;;14.13;7.43;;;21.20;80.50;;;20.22;80.71;95605.13;4928898;28;20098;-69
2021/08/16 01:04:37;;;;;;;9.43;6.38;;;21.20;80.50;;;20.23;80.91;95603.25;4933572;28;20040;-68
2021/08/16 01:07:04;;;;;;;12.25;6.07;;;21.20;80.30;;;20.17;80.60;95611.25;4829805;29;20442;-69
2021/08/16 01:09:31;;;;;;;11.52;6.20;;;21.00;80.30;;;20.10;80.52;95610.66;4807537;29;20730;-71
2021/08/16 01:11:57;;;;;;;9.98;5.80;;;20.90;80.20;;;20.09;79.76;95598.38;4811081;28;20706;-70
2021/08/16 01:14:23;;;;;;;8.20;5.82;;;21.00;79.40;;;20.07;79.92;95600.50;4786897;29;20279;-69
2021/08/16 01:16:48;;;;;;;6.22;5.38;;;20.90;78.80;;;20.05;79.55;95602.66;4871634;28;20906;-72
2021/08/16 01:19:18;;;;;;;7.88;5.55;;;20.90;78.30;;;20.00;78.90;95605.31;4859400;29;20043;-69
2021/08/16 01:21:44;;;;;;;6.78;5.18;;;20.80;78.30;;;19.98;78.41;95601.28;4845997;29;20155;-69
2021/08/16 01:24:10;;;;;;;8.07;5.72;;;20.90;78.10;;;19.99;77.96;95611.69;4878102;28;20039;-69
2021/08/16 01:26:36;;;;;;;9.60;5.20;;;20.90;77.90;;;20.03;78.10;95614.66;4859756;28;20403;-70
2021/08/16 01:29:19;;;;;;;13.93;5.53;;;21.00;78.10;;;20.04;79.04;95619.72;4785963;29;20379;-71
2021/08/16 01:31:45;;;;;;;10.57;5.43;;;21.10;78.10;;;20.05;79.04;95618.66;4789974;28;20303;-71
2021/08/16 01:34:11;;;;;;;11.13;5.65;;;21.10;77.90;;;20.05;78.48;95624.00;4804506;29;20347;-72
2021/08/16 01:36:40;;;;;;;12.35;5.10;;;21.00;78.00;;;20.02;77.69;95635.22;4789071;28;20403;-71
2021/08/16 01:39:07;;;;;;;8.43;5.55;;;20.90;77.70;;;19.98;78.26;95636.00;4803308;28;20455;-71
2021/08/16 01:41:32;;;;;;;10.13;5.43;;;20.80;78.00;;;19.93;77.25;95642.13;4788887;29;20191;-71
2021/08/16 01:43:59;;;;;;;9.48;5.43;;;20.80;78.00;;;19.88;78.69;95637.53;4813006;28;20358;-70
2021/08/16 01:46:25;;;;;;;10.52;5.70;;;20.70;77.80;;;19.84;77.21;95644.44;4818241;29;20303;-71
2021/08/16 01:48:52;;;;;;;7.80;5.10;;;20.70;77.50;;;19.81;78.50;95650.31;4778322;29;20361;-71
2021/08/16 01:51:18;;;;;;;8.82;5.32;;;20.60;77.80;;;19.81;78.13;95646.84;4769527;29;20211;-71
2021/08/16 01:53:44;;;;;;;11.75;5.70;;;20.70;78.00;;;19.82;78.31;95645.78;4804065;29;20344;-71
2021/08/16 01:56:10;;;;;;;11.68;5.75;;;20.70;78.00;;;19.87;77.93;95638.59;4820232;29;20184;-70
2021/08/16 01:58:37;;;;;;;8.30;5.70;;;20.90;77.80;;;19.91;78.87;95638.06;4778044;29;20360;-68
2021/08/16 02:01:03;;;;;;;8.82;5.75;;;20.90;78.00;;;19.95;78.82;95645.31;4766859;29;20774;-72
2021/08/16 02:03:29;;;;;;;10.00;5.78;;;21.00;78.10;;;20.00;78.70;95640.00;4766593;29;20196;-71
2021/08/16 02:05:55;;;;;;;14.07;5.93;;;21.10;77.90;;;20.02;77.93;95629.88;4764559;29;20370;-71
2021/08/16 02:08:21;;;;;;;11.15;6.05;;;21.10;77.90;;;20.04;78.12;95625.06;4776683;29;20340;-72
2021/08/16 02:10:47;;;;;;;11.23;6.47;;;21.10;78.10;;;20.05;78.65;95607.97;4815562;28;20358;-71
2021/08/16 02:13:14;;;;;;;12.85;6.13;;;21.10;78.30;;;20.05;78.22;95607.97;4822540;28;20627;-72
2021/08/16 02:15:40;;;;;;;15.63;6.43;;;21.00;78.80;;;20.08;78.58;95609.31;4819503;28;20505;-71
2021/08/16 02:18:06;;;;;;;17.50;6.32;;;21.10;78.90;;;20.10;78.43;95594.66;4799726;29;20363;-70
2021/08/16 02:20:33;;;;;;;10.55;6.30;;;21.10;78.40;;;20.12;77.84;95587.19;4800852;29;20398;-70
2021/08/16 02:23:00;;;;;;;10.35;6.25;;;21.10;78.20;;;20.16;79.05;95587.50;4796699;28;20385;-70
2021/08/16 02:25:26;;;;;;;14.10;10.25;;;21.20;78.10;;;20.19;78.42;95581.63;4767111;29;20451;-71
2021/08/16 02:27:54;;;;;;;18.35;11.68;;;21.30;78.20;;;20.22;78.84;95588.31;4814091;28;20347;-71
2021/08/16 02:30:22;;;;;;;13.27;6.95;;;21.30;78.50;;;20.23;78.48;95592.56;4800576;29;20531;-71
2021/08/16 02:33:09;;;;;;;10.95;7.32;;;21.30;78.20;;;20.21;78.96;95573.34;4811067;28;20651;-71
2021/08/16 02:35:35;;;;;;;10.88;6.32;;;21.30;78.30;;;20.19;79.06;95570.94;4803622;29;20335;-72
2021/08/16 02:38:10;;;;;;;12.60;6.57;;;21.20;78.50;;;20.15;79.67;95570.66;4798025;29;20332;-72
2021/08/16 02:40:37;;;;;;;13.13;6.65;;;21.10;78.80;;;20.11;78.71;95569.56;4799446;29;20676;-70
2021/08/16 02:43:03;;;;;;;12.63;6.25;;;21.10;79.00;;;20.10;79.95;95573.28;4796558;29;20574;-70
2021/08/16 02:45:29;;;;;;;12.25;6.28;;;21.10;79.10;;;20.09;79.07;95577.03;4798423;28;20451;-72
2021/08/16 02:47:55;;;;;;;9.48;6.28;;;21.10;78.90;;;20.11;79.05;95568.75;4801868;29;20351;-68
2021/08/16 02:50:21;;;;;;;12.43;6.43;;;21.10;78.90;;;20.11;79.48;95579.44;4822621;29;20697;-72
2021/08/16 02:52:48;;;;;;;12.38;6.43;;;21.10;78.80;;;20.10;78.70;95578.63;4817108;28;20690;-71
2021/08/16 02:55:14;;;;;;;11.65;6.45;;;21.10;78.90;;;20.12;79.17;95583.72;4833360;28;20362;-72
2021/08/16 02:57:40;;;;;;;11.90;5.68;;;21.20;78.80;;;20.12;78.81;95592.53;4822548;28;20647;-72
2021/08/16 03:00:07;;;;;;;14.48;6.88;;;21.10;78.60;;;20.12;79.04;95603.19;4823652;28;20433;-71
2021/08/16 03:02:33;;;;;;;12.57;6.80;;;21.10;78.60;;;20.09;79.02;95609.06;4806461;29;20332;-71
2021/08/16 03:04:59;;;;;;;10.43;6.32;;;21.10;78.80;;;20.08;78.98;95604.78;4838773;28;20351;-71
2021/08/16 03:07:25;;;;;;;13.68;6.80;;;21.00;79.00;;;20.04;79.23;95606.38;4839647;28;20373;-72
2021/08/16 03:09:51;;;;;;;9.73;6.43;;;21.00;79.10;;;20.00;79.13;95605.31;4820287;28;20355;-72
2021/08/16 03:12:19;;;;;;;12.82;6.13;;;20.90;79.30;;;19.99;78.90;95601.03;4805065;29;20375;-72
2021/08/16 03:14:45;;;;;;;13.38;6.88;;;20.90;79.40;;;19.96;79.67;95601.56;4803334;28;20423;-72
2021/08/16 03:17:11;;;;;;;12.68;6.40;;;20.90;79.60;;;19.94;79.59;95601.00;4798728;29;20371;-72
2021/08/16 03:19:37;;;;;;;10.45;6.43;;;20.90;79.80;;;19.93;80.76;95599.41;4817110;29;20368;-71
2021/08/16 03:22:04;;;;;;;10.82;7.00;;;20.90;79.90;;;19.89;80.39;95599.09;4804844;28;20192;-72
2021/08/16 03:24:32;;;;;;;10.05;6.22;;;20.80;80.20;;;19.86;80.70;95596.16;4802880;29;20456;-72
2021/08/16 03:26:58;;;;;;;13.45;7.53;;;20.80;80.30;;;19.84;79.83;95595.59;4803239;28;20364;-71
2021/08/16 03:29:24;;;;;;;10.25;7.03;;;20.80;80.50;;;19.80;79.72;95587.31;4814809;29;20387;-72
2021/08/16 03:31:51;;;;;;;10.32;6.40;;;20.70;80.80;;;19.80;80.71;95587.31;4791737;29;20376;-71
2021/08/16 03:34:17;;;;;;;11.85;6.80;;;20.80;80.60;;;19.77;80.57;95589.69;4789457;29;20334;-72
2021/08/16 03:36:43;;;;;;;14.02;7.03;;;20.80;80.80;;;19.77;81.18;95598.50;4785446;28;20303;-72
2021/08/16 03:39:09;;;;;;;9.88;7.35;;;20.80;80.70;;;19.77;81.36;95600.38;4788149;29;20368;-75
2021/08/16 03:41:36;;;;;;;11.85;7.72;;;20.70;80.70;;;19.72;81.88;95597.69;4802786;29;20372;-75
2021/08/16 03:44:02;;;;;;;12.32;8.10;;;20.60;81.20;;;19.66;81.37;95593.38;4823917;29;20071;-72
2021/08/16 03:46:27;;;;;;;13.30;7.07;;;20.60;81.50;;;19.63;81.72;95599.22;4922182;28;20918;-72
2021/08/16 03:48:53;;;;;;;13.93;7.90;;;20.60;81.70;;;19.57;81.53;95601.84;4913394;28;20079;-73
2021/08/16 03:51:19;;;;;;;12.43;7.43;;;20.50;82.00;;;19.58;82.07;95594.66;4911740;29;20128;-73
2021/08/16 03:53:45;;;;;;;13.32;7.03;;;20.60;81.80;;;19.60;82.23;95589.06;4906539;29;20052;-72
2021/08/16 03:56:11;;;;;;;14.32;8.13;;;20.60;81.90;;;19.57;81.51;95595.72;4914603;29;20062;-72
2021/08/16 03:58:40;;;;;;;9.80;7.70;;;20.50;82.20;;;19.54;82.24;95590.91;4930860;29;20037;-72
2021/08/16 04:01:06;;;;;;;13.55;7.35;;;20.50;82.40;;;19.51;82.04;95576.19;4929405;28;20467;-73
2021/08/16 04:03:32;;;;;;;17.50;7.50;;;20.50;82.50;;;19.50;82.78;95574.59;4930363;28;20031;-72
2021/08/16 04:05:58;;;;;;;10.65;7.10;;;20.50;82.60;;;19.50;82.82;95577.25;4927783;29;20042;-73
2021/08/16 04:08:23;;;;;;;10.40;7.43;;;20.50;82.50;;;19.50;83.44;95595.13;4913097;29;20677;-70
2021/08/16 04:10:49;;;;;;;13.15;7.82;;;20.50;82.60;;;19.49;83.21;95586.31;4945273;28;20135;-70
2021/08/16 04:13:15;;;;;;;15.27;7.28;;;20.50;82.60;;;19.50;83.60;95577.25;4929976;28;20062;-70
2021/08/16 04:15:41;;;;;;;13.38;7.60;;;20.50;82.50;;;19.52;83.26;95569.78;4913978;29;20388;-72
2021/08/16 04:18:06;;;;;;;15.50;8.07;;;20.60;82.20;;;19.55;82.45;95561.31;4914601;29;20178;-72
2021/08/16 04:20:32;;;;;;;10.15;7.28;;;20.60;82.10;;;19.57;83.22;95553.84;4926150;29;20038;-72
2021/08/16 04:22:58;;;;;;;12.15;7.57;;;20.60;81.90;;;19.61;82.55;95545.31;4914918;28;20043;-72
2021/08/16 04:25:24;;;;;;;11.30;7.75;;;20.70;82.00;;;19.65;83.18;95533.06;4927739;29;20234;-71
2021/08/16 04:27:50;;;;;;;10.02;7.32;;;20.70;81.80;;;19.64;82.32;95523.44;4898112;29;20056;-72
2021/08/16 04:30:16;;;;;;;10.80;7.18;;;20.70;81.90;;;19.63;83.24;95524.50;4906685;29;20055;-71
2021/08/16 04:32:42;;;;;;;11.13;7.43;;;20.70;82.00;;;19.63;83.39;95519.97;4899015;28;20035;-71
2021/08/16 04:35:08;;;;;;;13.02;7.65;;;20.70;82.10;;;19.65;83.31;95539.19;4904423;29;20040;-72
2021/08/16 04:37:36;;;;;;;11.23;7.65;;;20.80;82.00;;;19.67;83.78;95554.94;4891678;29;20044;-72
2021/08/16 04:40:02;;;;;;;12.45;7.93;;;20.80;82.10;;;19.68;82.53;95554.69;4906813;29;20072;-71
2021/08/16 04:42:27;;;;;;;12.77;7.50;;;20.80;82.00;;;19.71;83.51;95564.06;4892704;29;20044;-72
2021/08/16 04:44:53;;;;;;;12.18;7.30;;;20.90;81.90;;;19.72;83.09;95571.81;4910654;28;20415;-72
2021/08/16 04:47:19;;;;;;;13.65;8.02;;;20.90;81.90;;;19.73;83.13;95559.25;4896622;28;20099;-71
2021/08/16 04:49:45;;;;;;;12.95;8.13;;;20.90;82.00;;;19.73;83.36;95562.75;4906854;29;20071;-72
2021/08/16 04:52:10;;;;;;;14.15;8.38;;;20.90;81.70;;;19.74;82.87;95567.00;4899969;29;20464;-71
2021/08/16 04:54:36;;;;;;;16.02;9.50;;;20.90;81.90;;;19.71;83.33;95574.72;4879847;29;20059;-72
2021/08/16 04:57:02;;;;;;;15.80;8.18;;;20.70;82.30;;;19.65;83.26;95575.75;4925514;28;20038;-71
2021/08/16 04:59:28;;;;;;;15.05;8.25;;;20.60;82.80;;;19.63;83.40;95572.53;4909573;29;20116;-71
2021/08/16 05:01:54;;;;;;;14.98;8.55;;;20.60;82.80;;;19.60;84.56;95578.38;4910356;29;20146;-72
2021/08/16 05:04:19;;;;;;;13.98;7.68;;;20.60;82.90;;;19.61;83.80;95596.81;4913123;28;20075;-72
2021/08/16 05:06:46;;;;;;;13.10;8.73;;;20.70;82.90;;;19.56;84.09;95605.59;4918244;28;20036;-72
2021/08/16 05:09:12;;;;;;;14.23;8.25;;;20.50;83.20;;;19.51;84.19;95607.41;4929195;29;20047;-72
2021/08/16 05:11:38;;;;;;;15.20;8.98;;;20.40;83.40;;;19.45;83.89;95625.22;4929472;29;20456;-72
2021/08/16 05:14:04;;;;;;;12.25;8.68;;;20.40;83.50;;;19.41;83.52;95639.31;4929431;29;20062;-72
2021/08/16 05:16:30;;;;;;;13.90;8.65;;;20.30;83.90;;;19.36;85.08;95645.41;4944789;28;20120;-72
2021/08/16 05:18:55;;;;;;;11.75;8.52;;;20.20;84.20;;;19.35;85.30;95645.69;4926816;28;20040;-72
2021/08/16 05:21:22;;;;;;;13.80;9.00;;;20.30;84.20;;;19.36;85.29;95658.75;4926392;29;20062;-72
2021/08/16 05:23:48;;;;;;;12.93;8.85;;;20.40;84.10;;;19.38;85.84;95674.50;4907424;29;20660;-73
2021/08/16 05:26:13;;;;;;;16.75;9.23;;;20.40;84.00;;;19.37;85.49;95675.56;4923703;29;20055;-72
2021/08/16 05:28:39;;;;;;;13.90;8.82;;;20.40;84.30;;;19.41;85.03;95676.66;4916181;28;20090;-73
2021/08/16 05:31:05;;;;;;;12.15;7.88;;;20.50;84.10;;;19.46;85.52;95671.34;4944674;28;20034;-73
2021/08/16 05:33:31;;;;;;;14.35;8.93;;;20.60;83.90;;;19.48;85.66;95672.75;4928833;28;20407;-73
2021/08/16 05:35:57;;;;;;;15.57;9.25;;;20.60;84.30;;;19.52;86.09;95678.38;4900813;29;20039;-73
2021/08/16 05:38:23;;;;;;;19.83;9.75;;;20.60;84.40;;;19.57;85.94;95676.56;4910137;29;20127;-75
2021/08/16 05:40:49;;;;;;;13.60;8.95;;;20.70;84.30;;;19.64;85.65;95680.88;4915513;28;20190;-73
2021/08/16 05:43:15;;;;;;;15.25;9.00;;;20.80;84.10;;;19.70;85.75;95680.66;4913315;29;20250;-73
2021/08/16 05:45:40;;;;;;;13.60;9.55;;;20.90;84.00;;;19.75;86.37;95682.56;4937402;28;20043;-73
2021/08/16 05:48:06;;;;;;;17.20;8.73;;;21.00;83.60;;;19.82;86.28;95689.28;4897829;29;20045;-73
2021/08/16 05:50:33;;;;;;;11.95;8.52;;;21.10;83.30;;;19.87;85.88;95685.84;4905818;29;20044;-73
2021/08/16 05:52:59;;;;;;;13.45;7.95;;;21.10;82.50;;;19.93;84.84;95684.03;4890525;29;20435;-72
2021/08/16 05:55:25;;;;;;;10.90;6.47;;;21.10;81.60;;;19.97;83.93;95690.44;4891006;29;20036;-72
2021/08/16 05:57:50;;;;;;;10.63;6.57;;;21.10;80.10;;;20.01;83.17;95705.69;4891121;29;20067;-73
2021/08/16 06:00:19;;;;;;;11.25;6.22;;;21.10;79.50;;;20.07;82.24;95687.81;4903994;29;20159;-73
2021/08/16 06:02:44;;;;;;;9.68;5.20;;;21.20;77.90;;;20.10;80.62;95681.97;4923654;28;20035;-73
2021/08/16 06:05:10;;;;;;;6.75;5.22;;;21.20;77.40;;;20.13;80.36;95679.56;4911670;28;20453;-73
2021/08/16 06:07:36;;;;;;;6.80;4.82;;;21.30;76.80;;;20.18;79.88;95692.97;4927696;29;20047;-73
2021/08/16 06:10:04;;;;;;;7.30;5.05;;;21.40;76.60;;;20.19;78.91;95678.56;4931646;29;20051;-72
2021/08/16 06:12:30;;;;;;;5.63;4.45;;;21.40;75.70;;;20.23;78.91;95675.38;4932627;29;20039;-73
2021/08/16 06:14:55;;;;;;;8.02;4.28;;;21.40;75.80;;;20.25;78.62;95673.22;4931334;28;20419;-73
2021/08/16 06:17:21;;;;;;;7.13;4.65;;;21.40;75.20;;;20.25;78.51;95665.22;4927712;29;20032;-72
2021/08/16 06:19:47;;;;;;;7.30;4.28;;;21.40;75.60;;;20.27;78.20;95673.78;4909242;29;20048;-73
2021/08/16 06:22:13;;;;;;;5.78;3.85;;;21.40;75.50;;;20.25;78.42;95675.91;4894584;29;20539;-73
2021/08/16 06:24:38;;;;;;;5.93;4.30;;;21.40;75.80;;;20.23;77.47;95672.69;4927653;28;20389;-70
2021/08/16 06:27:04;;;;;;;5.35;3.95;;;21.40;75.70;;;20.26;77.97;95672.16;4900954;29;20411;-72
2021/08/16 06:29:30;;;;;;;7.30;4.10;;;21.40;75.70;;;20.28;77.44;95675.38;4929541;29;20117;-72
2021/08/16 06:31:56;;;;;;;6.80;4.28;;;21.50;75.90;;;20.33;78.27;95672.72;4909360;28;20507;-73
2021/08/16 06:34:23;;;;;;;5.78;4.10;;;21.60;75.50;;;20.37;77.70;95673.84;4912629;29;20118;-73
2021/08/16 06:36:56;;;;;;;5.07;3.67;;;21.70;75.40;;;20.40;77.54;95671.47;4910502;29;20036;-72
2021/08/16 06:39:23;;;;;;;7.13;4.22;;;21.70;75.00;;;20.43;77.29;95672.81;4913010;29;20094;-73
2021/08/16 06:41:53;;;;;;;11.10;6.28;;;21.70;75.60;;;20.47;77.87;95673.91;4913036;29;20032;-73
2021/08/16 06:44:20;;;;;;;7.45;5.65;;;21.80;75.10;;;20.56;77.38;95666.97;4896738;29;20040;-72
2021/08/16 06:46:46;;;;;;;8.23;4.63;;;22.10;74.80;;;20.68;77.22;95664.88;4893533;29;20165;-72
2021/08/16 06:49:12;;;;;;;7.78;6.00;;;22.30;74.10;;;20.81;77.31;95668.91;4893215;29;20139;-72
2021/08/16 06:51:38;;;;;;;6.68;4.25;;;22.40;74.10;;;20.91;77.22;95665.47;4890756;29;20536;-72
2021/08/16 06:54:04;;;;;;;6.53;3.70;;;22.50;73.60;;;21.02;77.19;95675.09;4878408;29;20051;-73
2021/08/16 06:56:29;;;;;;;6.50;4.30;;;22.50;73.30;;;21.09;76.87;95675.69;4904088;29;20104;-72
2021/08/16 06:58:55;;;;;;;5.20;3.78;;;22.60;73.30;;;21.19;77.23;95670.31;4873960;29;20049;-72
2021/08/16 07:01:23;;;;;;;8.00;4.03;;;22.80;73.10;;;21.32;76.85;95671.72;4905833;29;20039;-73
2021/08/16 07:03:49;;;;;;;6.28;4.60;;;22.90;72.90;;;21.43;76.45;95681.34;4890122;29;20049;-74
2021/08/16 07:06:15;;;;;;;6.38;3.70;;;23.10;72.40;;;21.56;76.47;95674.66;4890385;29;20037;-73
2021/08/16 07:08:41;;;;;;;6.07;3.50;;;23.20;72.40;;;21.69;76.29;95672.22;4910932;28;20389;-72
2021/08/16 07:11:07;;;;;;;7.90;3.97;;;23.50;71.70;;;21.85;75.45;95686.41;4912291;29;20059;-72
2021/08/16 07:13:33;;;;;;;6.35;3.05;;;23.60;70.50;;;22.00;75.71;95683.72;4907583;29;20101;-73
2021/08/16 07:15:58;;;;;;;6.47;3.28;;;23.80;69.30;;;22.11;74.24;95687.19;4947171;28;20135;-72
2021/08/16 07:18:24;;;;;;;5.63;3.22;;;23.80;68.70;;;22.24;73.41;95683.97;4907044;29;20046;-73
2021/08/16 07:20:50;;;;;;;6.85;4.35;;;24.00;68.90;;;22.41;73.45;95675.59;4916584;28;20057;-73
2021/08/16 07:23:16;;;;;;;4.50;3.17;;;24.20;67.40;;;22.54;72.60;95685.72;4910654;29;20360;-72
2021/08/16 07:25:41;;;;;;;11.18;6.85;;;24.30;66.40;;;22.68;72.33;95682.47;4922341;29;20119;-73
2021/08/16 07:28:07;;;;;;;7.18;4.13;;;24.60;67.50;;;22.88;72.44;95685.06;4931095;29;20043;-73
2021/08/16 07:30:34;;;;;;;6.80;5.00;;;24.90;66.50;;;23.09;71.82;95670.47;4919125;28;20071;-73
2021/08/16 07:33:00;;;;;;;17.38;15.60;;;25.30;65.20;;;23.32;72.05;95670.84;4894856;29;20047;-73
2021/08/16 07:35:26;;;;;;;4.85;3.50;;;25.60;64.50;;;23.53;71.09;95669.56;4911810;29;20047;-73
2021/08/16 07:37:52;;;;;;;5.75;3.33;;;25.80;63.40;;;23.74;70.85;95681.78;4911817;29;20050;-73
2021/08/16 07:40:20;;;;;;;6.38;3.60;;;26.00;61.90;;;23.94;69.94;95688.84;4910895;29;20042;-73
2021/08/16 07:42:46;;;;;;;4.90;3.17;;;26.10;61.90;;;24.12;68.81;95682.75;4911787;28;20138;-73
2021/08/16 07:45:12;;;;;;;6.80;3.05;;;26.40;61.40;;;24.26;68.46;95677.53;4911906;29;20098;-73
2021/08/16 07:47:38;;;;;;;6.10;3.60;;;26.20;60.20;;;24.35;67.55;95681.22;4911727;29;20560;-73
2021/08/16 07:50:14;;;;;;;6.30;3.70;;;26.30;60.10;;;24.47;66.63;95682.72;4910907;29;20443;-73
2021/08/16 07:52:42;;;;;;;4.75;3.08;;;26.30;59.80;;;24.51;66.96;95683.72;4912762;28;20050;-72
2021/08/16 07:55:08;;;;;;;6.72;3.38;;;26.20;60.60;;;24.58;66.08;95690.34;4911711;29;20036;-73
2021/08/16 07:57:35;;;;;;;4.82;3.25;;;26.40;60.30;;;24.63;66.33;95678.72;4892282;29;20036;-73
2021/08/16 08:00:01;;;;;;;5.45;3.58;;;26.40;60.10;;;24.72;66.43;95682.38;4907724;29;20052;-72
2021/08/16 08:02:43;;;;;;;7.15;3.85;;;26.60;60.20;;;24.81;64.60;95683.34;4941540;28;20408;-73
2021/08/16 08:05:12;;;;;;;5.47;3.60;;;26.60;60.30;;;24.81;65.75;95696.78;4905728;28;20059;-73
2021/08/16 08:07:38;;;;;;;4.95;3.58;;;26.40;61.20;;;24.73;65.98;95694.75;4914440;29;20035;-73
2021/08/16 08:10:05;;;;;;;7.80;5.57;;;26.20;61.00;;;24.63;65.76;95697.53;4913613;29;20133;-73
2021/08/16 08:12:31;;;;;;;6.93;3.90;;;26.00;61.90;;;24.65;66.03;95695.38;4914257;28;20050;-74
2021/08/16 08:14:57;;;;;;;6.53;3.67;;;26.30;62.20;;;24.69;65.74;95691.03;4929297;28;20047;-73
2021/08/16 08:17:23;;;;;;;7.68;3.97;;;26.40;62.20;;;24.72;66.02;95693.94;4928332;28;20606;-73
2021/08/16 08:19:50;;;;;;;10.77;4.10;;;26.40;62.50;;;24.77;66.41;95686.91;4888311;29;20142;-73
2021/08/16 08:22:18;;;;;;;8.88;4.03;;;26.50;62.50;;;24.73;66.36;95686.69;4901480;29;20103;-73
2021/08/16 08:24:44;;;;;;;7.82;4.65;;;26.20;62.20;;;24.64;65.94;95694.56;4924017;28;20035;-72
2021/08/16 08:27:12;;;;;;;12.27;6.13;;;26.00;63.00;;;24.58;65.95;95690.34;4900052;29;20134;-73
2021/08/16 08:29:38;;;;;;;6.18;4.40;;;25.80;63.60;;;24.51;66.76;95697.16;4907662;29;20517;-73
2021/08/16 08:32:04;;;;;;;7.30;4.47;;;25.80;64.80;;;24.41;66.52;95696.19;4903104;29;20050;-72
2021/08/16 08:34:30;;;;;;;7.47;4.45;;;25.70;63.90;;;24.38;66.75;95701.34;4919327;28;20062;-73
2021/08/16 08:36:56;;;;;;;7.65;4.78;;;25.70;64.40;;;24.32;66.92;95707.88;4910151;28;20035;-72
2021/08/16 08:39:21;;;;;;;7.43;4.32;;;25.50;64.30;;;24.26;66.87;95709.78;4894235;29;20054;-73
2021/08/16 08:41:47;;;;;;;7.10;4.80;;;25.50;65.00;;;24.22;66.85;95706.06;4894865;29;20559;-73
2021/08/16 08:44:14;;;;;;;8.95;4.70;;;25.40;65.30;;;24.15;67.02;95702.88;4895098;28;20054;-72
2021/08/16 08:46:42;;;;;;;8.98;4.95;;;25.50;65.20;;;24.12;66.71;95698.09;4909646;28;20039;-68
2021/08/16 08:49:09;;;;;;;6.80;4.43;;;25.60;65.20;;;24.18;67.38;95696.94;4903671;29;20059;-73
2021/08/16 08:51:36;;;;;;;8.05;5.53;;;25.80;64.90;;;24.33;67.54;95699.50;4917763;29;20058;-73
2021/08/16 08:54:03;;;;;;;8.02;4.63;;;26.00;65.10;;;24.40;67.57;95710.72;4929182;29;20455;-73
2021/08/16 08:56:31;;;;;;;7.10;4.70;;;26.10;65.20;;;24.38;68.41;95712.88;4929354;28;20043;-72
2021/08/16 08:58:57;;;;;;;10.52;5.35;;;25.70;66.60;;;24.28;68.61;95714.88;4927803;28;20039;-72
2021/08/16 09:01:23;;;;;;;8.77;5.38;;;25.50;67.60;;;24.04;68.79;95717.53;4929246;28;20039;-73
2021/08/16 09:03:50;;;;;;;8.05;5.53;;;24.90;68.60;;;23.81;69.01;95714.50;4909837;29;20044;-73
2021/08/16 09:06:27;;;;;;;9.43;6.00;;;24.70;69.50;;;23.65;70.71;95736.38;4891848;29;20040;-73
2021/08/16 09:08:53;;;;;;;7.40;5.28;;;24.60;70.80;;;23.45;70.75;95735.41;4890154;29;20040;-72
2021/08/16 09:11:19;;;;;;;10.27;5.47;;;24.40;71.80;;;23.34;71.48;95735.78;4907228;29;20095;-73
2021/08/16 09:13:50;;;;;;;8.50;5.85;;;24.50;71.80;;;23.25;72.80;95732.06;4891474;29;20042;-73
2021/08/16 09:16:15;;;;;;;13.10;5.97;;;24.30;73.00;;;23.12;71.98;95734.28;4898355;29;20055;-73
2021/08/16 09:18:41;;;;;;;7.60;5.72;;;24.10;73.30;;;23.06;72.39;95740.75;4934108;28;20519;-72
2021/08/16 09:21:08;;;;;;;9.07;5.80;;;24.10;72.70;;;23.05;72.62;95741.81;4892791;29;20040;-72
2021/08/16 09:23:49;;;;;;;7.55;6.40;;;24.40;73.20;;;23.04;74.29;95736.72;4895823;29;20039;-73
2021/08/16 09:26:19;;;;;;;12.77;9.05;;;24.10;73.60;;;22.98;74.06;95737.84;4923082;29;20039;-73
2021/08/16 09:28:44;;;;;;;9.80;6.40;;;24.20;74.30;;;22.94;74.75;95728.75;4913781;28;20106;-72
2021/08/16 09:31:16;;;;;;;9.88;6.47;;;24.10;74.80;;;22.87;74.81;95729.06;4899355;29;20075;-73
2021/08/16 09:33:56;;;;;;;8.25;6.57;;;24.00;74.90;;;22.78;76.29;95723.41;4911127;29;20039;-72
2021/08/16 09:36:41;;;;;;;12.48;9.27;;;23.80;75.60;;;22.69;76.19;95718.91;4895391;29;20187;-73
2021/08/16 09:39:17;;;;;;;8.73;6.65;;;23.70;75.60;;;22.60;76.33;95708.75;4882167;29;20212;-72
2021/08/16 09:41:43;;;;;;;8.32;5.45;;;23.70;74.90;;;22.55;74.90;95719.50;4897723;28;20043;-72
2021/08/16 09:44:11;;;;;;;6.30;4.78;;;23.70;74.40;;;22.51;74.97;95721.13;4895024;29;20513;-73
2021/08/16 09:46:37;;;;;;;13.90;5.45;;;23.70;73.90;;;22.44;75.18;95707.22;4925214;29;20036;-73
2021/08/16 09:49:04;;;;;;;7.75;5.22;;;23.70;74.20;;;22.37;74.71;95716.59;4923396;28;20047;-72
2021/08/16 09:51:31;;;;;;;6.85;5.13;;;23.50;74.10;;;22.30;74.90;95706.97;4932182;28;20046;-72
2021/08/16 09:53:57;;;;;;;9.93;5.50;;;23.50;73.70;;;22.24;74.39;95716.09;4932461;29;20791;-72
2021/08/16 09:56:23;;;;;;;7.72;5.57;;;23.40;74.10;;;22.22;74.89;95728.16;4932009;28;20046;-73
2021/08/16 09:58:49;;;;;;;8.15;5.82;;;23.40;74.80;;;22.14;75.34;95728.69;4931595;28;20035;-70
2021/08/16 10:01:15;;;;;;;7.63;5.65;;;23.10;75.60;;;22.06;76.22;95737.28;4920584;29;20047;-72
2021/08/16 10:03:41;;;;;;;9.23;5.72;;;23.10;75.90;;;21.99;76.51;95748.25;4928582;29;20048;-72
2021/08/16 10:06:08;;;;;;;9.52;5.72;;;23.00;76.60;;;21.91;76.25;95759.50;4909792;29;20139;-72
2021/08/16 10:08:54;;;;;;;7.55;6.40;;;22.90;76.60;;;21.82;78.65;95761.13;4924560;29;20050;-73
2021/08/16 10:11:20;;;;;;;10.60;7.90;;;22.80;77.80;;;21.76;76.92;95765.69;4913548;29;20094;-72
2021/08/16 10:13:53;;;;;;;10.07;7.22;;;22.80;77.80;;;21.67;78.88;95751.19;4913107;29;20472;-72